Wild Orchid 1 — 9HB2165 — position and weather

sailwx.info

Track history (hours):
 
Tides and Currents Weather Stations Pressure Air Temp Water Temp Dewpoint Dewpoint Depression Visibility Wind Speed Wind Dir Waves Ship Positions

Wild Orchid 1

Last reported at 2018-Jun-22 20:17 UTC. Time now 2018-Jun-24 01:37 UTC.
Position N 43°44' E 007°25'.

Length 45 m; draft 2.8 m.

Type: Pleasure craft. MMSI: 215586000.

Date/timePositionNaut miles runAvg speedWind from/ knotsBaromVisibWave heightAir tempDewpointWater temp
2018-Jun-22 20:17N 43°44' E 007°25'0 0.0
2018-Jun-22 19:08N 43°44' E 007°25'0 1.8
2018-Jun-22 19:00N 43°44' E 007°26'713.4
2018-Jun-22 18:28N 43°45' E 007°36'815.1
2018-Jun-22 17:55N 43°48' E 007°47'1 0.1
2018-Jun-21 21:01N 43°49' E 007°47'0 0.0
2018-Jun-21 20:59N 43°49' E 007°47'0 0.0
2018-Jun-21 19:23N 43°49' E 007°47'0 0.0
2018-Jun-21 18:56N 43°49' E 007°47'0 0.0
2018-Jun-21 18:30N 43°49' E 007°47'0 0.0
2018-Jun-21 14:23N 43°49' E 007°47'0 0.0
2018-Jun-21 14:00N 43°49' E 007°47'0 0.0
2018-Jun-21 13:30N 43°49' E 007°47'0 0.0
2018-Jun-21 13:00N 43°49' E 007°47'0 0.0
2018-Jun-21 09:27N 43°49' E 007°47'0 0.0
2018-Jun-21 09:00N 43°49' E 007°47'0 0.0
2018-Jun-21 08:12N 43°49' E 007°47'13 0.6
2018-Jun-20 09:19N 43°44' E 007°30'3 0.2
2018-Jun-19 11:55N 43°44' E 007°25'0 0.0
2018-Jun-19 11:30N 43°44' E 007°25'0 0.1
2018-Jun-19 10:40N 43°44' E 007°26'0 2.7
2018-Jun-19 10:30N 43°44' E 007°26'6 8.4
2018-Jun-19 09:45N 43°40' E 007°20'313.5
2018-Jun-19 09:30N 43°37' E 007°17'813.1
2018-Jun-19 08:54N 43°32' E 007°09'4 0.1
2018-Jun-17 17:09N 43°34' E 007°05'0 0.0
2018-Jun-17 16:36N 43°34' E 007°05'0 0.0
2018-Jun-17 16:30N 43°34' E 007°05'0 0.0
2018-Jun-17 15:57N 43°34' E 007°05'0 0.0
2018-Jun-17 15:15N 43°34' E 007°05'0 0.0
2018-Jun-17 15:00N 43°34' E 007°05'  
Track history (hours):
 
Tides and Currents Weather Stations Pressure Air Temp Water Temp Dewpoint Dewpoint Depression Visibility Wind Speed Wind Dir Waves Ship Positions

Wild Orchid 1

Last reported at 2018-Jun-22 20:17 UTC. Time now 2018-Jun-24 01:37 UTC.
Position N 43°44' E 007°25'.

Length 45 m; draft 2.8 m.

Type: Pleasure craft. MMSI: 215586000.

Date/timePositionNaut miles runAvg speedWind from/ knotsBaromVisibWave heightAir tempDewpointWater temp
2018-Jun-22 20:17N 43°44' E 007°25'0 0.0
2018-Jun-22 19:08N 43°44' E 007°25'0 1.8
2018-Jun-22 19:00N 43°44' E 007°26'713.4
2018-Jun-22 18:28N 43°45' E 007°36'815.1
2018-Jun-22 17:55N 43°48' E 007°47'1 0.1
2018-Jun-21 21:01N 43°49' E 007°47'0 0.0
2018-Jun-21 20:59N 43°49' E 007°47'0 0.0
2018-Jun-21 19:23N 43°49' E 007°47'0 0.0
2018-Jun-21 18:56N 43°49' E 007°47'0 0.0
2018-Jun-21 18:30N 43°49' E 007°47'0 0.0
2018-Jun-21 14:23N 43°49' E 007°47'0 0.0
2018-Jun-21 14:00N 43°49' E 007°47'0 0.0
2018-Jun-21 13:30N 43°49' E 007°47'0 0.0
2018-Jun-21 13:00N 43°49' E 007°47'0 0.0
2018-Jun-21 09:27N 43°49' E 007°47'0 0.0
2018-Jun-21 09:00N 43°49' E 007°47'0 0.0
2018-Jun-21 08:12N 43°49' E 007°47'13 0.6
2018-Jun-20 09:19N 43°44' E 007°30'3 0.2
2018-Jun-19 11:55N 43°44' E 007°25'0 0.0
2018-Jun-19 11:30N 43°44' E 007°25'0 0.1
2018-Jun-19 10:40N 43°44' E 007°26'0 2.7
2018-Jun-19 10:30N 43°44' E 007°26'6 8.4
2018-Jun-19 09:45N 43°40' E 007°20'313.5
2018-Jun-19 09:30N 43°37' E 007°17'813.1
2018-Jun-19 08:54N 43°32' E 007°09'4 0.1
2018-Jun-17 17:09N 43°34' E 007°05'0 0.0
2018-Jun-17 16:36N 43°34' E 007°05'0 0.0
2018-Jun-17 16:30N 43°34' E 007°05'0 0.0
2018-Jun-17 15:57N 43°34' E 007°05'0 0.0
2018-Jun-17 15:15N 43°34' E 007°05'0 0.0
2018-Jun-17 15:00N 43°34' E 007°05'  

Dump ship's entire track history